Time;durP1;ratioP1;P1;durP2;ratioP2;P2;SDS_P1;SDS_P2;PMS_P1;PMS_P2;Temp;Humidity;BMP_temperature;BMP_pressure;BME280_temperature;BME280_humidity;BME280_pressure;Samples;Min_cycle;Max_cycle;Signal;HPM_P1;HPM_P2
2024/01/21 00:00:07;;;;;;;1.80;0.60;;;;;;;-1.61;88.99;102355.25;5079498;28;20464;-67
2024/01/21 00:02:35;;;;;;;3.00;1.93;;;;;;;-1.57;89.48;102354.72;5083454;28;20467;-67
2024/01/21 00:05:01;;;;;;;2.67;1.17;;;;;;;-1.61;89.94;102358.75;5082949;28;20572;-67
2024/01/21 00:07:28;;;;;;;1.90;0.70;;;;;;;-1.53;89.82;102350.72;5082046;28;20516;-67
2024/01/21 00:09:54;;;;;;;2.47;1.00;;;;;;;-1.53;90.95;102348.06;5082519;28;20502;-67
2024/01/21 00:12:21;;;;;;;2.00;0.90;;;;;;;-1.56;90.92;102344.94;5079248;28;20535;-67
2024/01/21 00:14:48;;;;;;;1.97;0.97;;;;;;;-1.65;91.16;102353.97;5076837;28;20528;-67
2024/01/21 00:17:16;;;;;;;3.63;1.80;;;;;;;-1.66;91.50;102345.16;5077052;28;20476;-67
2024/01/21 00:19:44;;;;;;;2.57;1.00;;;;;;;-1.66;91.13;102342.50;5076690;28;20861;-67
2024/01/21 00:22:11;;;;;;;2.57;1.67;;;;;;;-1.71;90.89;102341.41;5076607;28;20814;-66
2024/01/21 00:24:38;;;;;;;1.70;0.60;;;;;;;-1.70;90.56;102337.72;5076781;28;20487;-66
2024/01/21 00:27:05;;;;;;;2.93;0.77;;;;;;;-1.79;90.08;102339.63;5076844;28;20461;-66
2024/01/21 00:29:31;;;;;;;2.30;1.13;;;;;;;-1.78;90.22;102343.91;5076812;28;20441;-67
2024/01/21 00:31:58;;;;;;;1.60;0.57;;;;;;;-1.80;90.05;102340.63;5076913;28;20542;-67
2024/01/21 00:34:24;;;;;;;1.60;0.53;;;;;;;-1.83;89.14;102336.47;5076801;28;20621;-67
2024/01/21 00:36:53;;;;;;;4.00;2.17;;;;;;;-1.88;89.30;102330.88;5076496;28;20945;-67
2024/01/21 00:39:19;;;;;;;1.60;0.40;;;;;;;-1.86;89.09;102339.50;5076438;28;20484;-67
2024/01/21 00:41:46;;;;;;;1.90;1.10;;;;;;;-1.83;89.37;102338.31;5076368;28;20556;-67
2024/01/21 00:44:12;;;;;;;1.70;0.70;;;;;;;-1.90;88.68;102319.59;5076556;28;20514;-67
2024/01/21 00:46:39;;;;;;;1.60;0.50;;;;;;;-1.94;89.16;102320.97;5076426;28;20532;-67
2024/01/21 00:49:06;;;;;;;2.00;0.93;;;;;;;-1.93;89.22;102321.78;5076124;28;20529;-66
2024/01/21 00:51:33;;;;;;;1.50;0.30;;;;;;;-1.96;88.36;102317.63;5076059;28;20894;-66
2024/01/21 00:54:00;;;;;;;1.90;0.70;;;;;;;-1.99;88.63;102322.47;5076255;28;20452;-66
2024/01/21 00:56:27;;;;;;;2.70;0.90;;;;;;;-1.93;88.70;102316.47;5076290;28;20443;-66
2024/01/21 00:58:54;;;;;;;8.20;2.30;;;;;;;-1.95;87.87;102313.97;5075946;28;20955;-66
2024/01/21 01:01:20;;;;;;;2.47;1.03;;;;;;;-2.02;87.33;102321.00;5076101;28;20472;-66
2024/01/21 01:03:47;;;;;;;1.53;0.40;;;;;;;-1.96;87.94;102320.28;5076400;28;20574;-66
2024/01/21 01:06:13;;;;;;;3.00;0.60;;;;;;;-1.93;87.99;102314.63;5076467;28;20516;-66
2024/01/21 01:08:40;;;;;;;1.60;0.50;;;;;;;-1.91;87.31;102315.28;5076385;28;20533;-66
2024/01/21 01:11:08;;;;;;;2.00;0.63;;;;;;;-1.94;88.23;102318.31;5075957;28;20925;-66
2024/01/21 01:13:35;;;;;;;2.83;1.70;;;;;;;-1.94;88.42;102314.81;5076175;28;20441;-66
2024/01/21 01:16:02;;;;;;;1.83;0.83;;;;;;;-1.95;88.29;102308.66;5076196;28;20524;-66
2024/01/21 01:18:29;;;;;;;5.47;0.90;;;;;;;-1.95;88.37;102306.00;5075937;28;20441;-66
2024/01/21 01:20:55;;;;;;;2.00;0.90;;;;;;;-1.90;88.13;102305.50;5076172;28;20566;-66
2024/01/21 01:23:22;;;;;;;3.00;1.57;;;;;;;-1.92;88.02;102313.63;5075909;28;20996;-66
2024/01/21 01:25:48;;;;;;;2.20;1.33;;;;;;;-1.94;88.29;102309.50;5075429;28;20579;-66
2024/01/21 01:28:16;;;;;;;1.83;0.50;;;;;;;-1.94;88.06;102310.34;5075614;28;20437;-66
2024/01/21 01:30:44;;;;;;;1.60;0.50;;;;;;;-2.00;87.99;102311.03;5075618;28;20522;-66
2024/01/21 01:33:10;;;;;;;2.17;0.50;;;;;;;-1.99;87.60;102310.03;5075874;28;20519;-66
2024/01/21 01:35:37;;;;;;;1.50;0.40;;;;;;;-2.03;87.78;102309.56;5075480;28;20509;-66
2024/01/21 01:38:05;;;;;;;1.60;0.57;;;;;;;-2.05;86.95;102310.72;5075722;28;20521;-66
2024/01/21 01:40:32;;;;;;;2.10;1.13;;;;;;;-2.09;86.62;102301.44;5075421;28;20865;-66
2024/01/21 01:43:02;;;;;;;2.83;1.80;;;;;;;-2.05;86.30;102303.56;5074766;28;21087;-66
2024/01/21 01:45:31;;;;;;;2.27;0.87;;;;;;;-2.09;85.45;102293.50;5075380;28;20469;-66
2024/01/21 01:47:58;;;;;;;3.70;1.50;;;;;;;-2.08;86.36;102292.47;5075591;28;20525;-66
2024/01/21 01:50:26;;;;;;;1.50;0.30;;;;;;;-2.15;86.49;102288.88;5075420;28;20433;-66
2024/01/21 01:52:53;;;;;;;1.53;0.40;;;;;;;-2.17;86.75;102288.22;5075354;28;20489;-66
2024/01/21 01:55:20;;;;;;;2.07;0.70;;;;;;;-2.14;87.13;102293.19;5074899;28;20951;-66
2024/01/21 01:57:47;;;;;;;1.70;0.70;;;;;;;-2.18;87.05;102286.56;5075314;28;20540;-65
2024/01/21 02:00:15;;;;;;;3.80;1.30;;;;;;;-2.23;87.56;102283.63;5074852;28;20434;-67
2024/01/21 02:02:43;;;;;;;2.27;0.83;;;;;;;-2.28;87.05;102278.84;5075207;28;20496;-65
2024/01/21 02:05:10;;;;;;;1.80;0.97;;;;;;;-2.29;87.43;102278.00;5075176;28;20483;-65
2024/01/21 02:07:37;;;;;;;1.57;0.47;;;;;;;-2.21;87.20;102271.84;5074875;28;20444;-65
2024/01/21 02:10:04;;;;;;;2.20;1.20;;;;;;;-2.30;86.80;102268.41;5075093;28;20445;-65
2024/01/21 02:12:31;;;;;;;2.10;0.87;;;;;;;-2.33;86.46;102271.41;5074644;28;20552;-65
2024/01/21 02:14:57;;;;;;;2.53;1.13;;;;;;;-2.38;86.52;102271.09;5074433;28;20520;-65
2024/01/21 02:17:24;;;;;;;1.60;0.50;;;;;;;-2.43;85.74;102270.78;5074520;28;20504;-65
2024/01/21 02:19:52;;;;;;;2.03;0.63;;;;;;;-2.44;86.58;102273.59;5074662;28;20469;-65
2024/01/21 02:22:20;;;;;;;1.50;0.30;;;;;;;-2.41;86.47;102270.63;5073596;28;20465;-65
2024/01/21 02:24:48;;;;;;;1.80;0.70;;;;;;;-2.43;86.46;102254.88;5074405;28;20495;-65
2024/01/21 02:27:15;;;;;;;2.27;1.43;;;;;;;-2.34;85.88;102261.78;5075150;28;20495;-65
2024/01/21 02:29:42;;;;;;;1.80;0.80;;;;;;;-2.25;85.31;102264.41;5074412;28;20441;-65
2024/01/21 02:32:08;;;;;;;1.50;0.40;;;;;;;-2.19;86.43;102256.56;5074352;28;20892;-65
2024/01/21 02:34:35;;;;;;;4.83;2.50;;;;;;;-2.14;85.93;102261.34;5074970;28;20512;-65
2024/01/21 02:37:01;;;;;;;4.13;1.80;;;;;;;-2.13;84.70;102252.38;5074474;28;20436;-65
2024/01/21 02:39:28;;;;;;;9.97;2.10;;;;;;;-2.13;83.87;102250.53;5074537;28;20527;-65
2024/01/21 02:41:56;;;;;;;2.43;1.23;;;;;;;-2.20;83.22;102252.25;5074349;28;20550;-65
2024/01/21 02:44:23;;;;;;;3.00;2.07;;;;;;;-2.20;83.07;102254.09;5074465;28;20548;-65
2024/01/21 02:46:49;;;;;;;3.73;0.80;;;;;;;-2.25;82.50;102246.66;5074447;28;20524;-65
2024/01/21 02:49:16;;;;;;;5.63;1.97;;;;;;;-2.20;82.09;102246.13;5074343;28;20805;-65
2024/01/21 02:51:43;;;;;;;1.53;0.40;;;;;;;-2.17;81.85;102240.44;5074593;28;20460;-65
2024/01/21 02:54:09;;;;;;;2.00;0.70;;;;;;;-2.21;81.58;102239.16;5077741;28;20503;-65
2024/01/21 02:56:36;;;;;;;2.60;1.90;;;;;;;-2.25;80.90;102241.34;5075341;28;20897;-65
2024/01/21 02:59:04;;;;;;;1.50;0.30;;;;;;;-2.22;81.17;102233.00;5073995;28;20528;-65
2024/01/21 03:01:30;;;;;;;2.77;0.93;;;;;;;-2.19;80.86;102237.16;5073930;28;20548;-66
2024/01/21 03:03:57;;;;;;;1.80;0.70;;;;;;;-2.18;80.33;102239.63;5073597;28;20994;-66
2024/01/21 03:06:24;;;;;;;1.60;0.50;;;;;;;-2.20;79.15;102244.28;5073767;28;20516;-66
2024/01/21 03:08:50;;;;;;;1.90;0.93;;;;;;;-2.26;80.52;102242.31;5073772;28;20437;-65
2024/01/21 03:11:17;;;;;;;1.70;0.60;;;;;;;-2.28;79.83;102247.81;5073765;28;20998;-65
2024/01/21 03:13:43;;;;;;;1.63;0.60;;;;;;;-2.26;79.72;102246.81;5073557;28;20526;-65
2024/01/21 03:16:13;;;;;;;3.27;2.03;;;;;;;-2.34;79.47;102251.19;5073583;28;20520;-65
2024/01/21 03:18:39;;;;;;;1.83;0.93;;;;;;;-2.29;79.94;102248.81;5074042;28;20529;-66
2024/01/21 03:21:06;;;;;;;6.83;1.20;;;;;;;-2.29;79.69;102254.13;5073734;28;20441;-66
2024/01/21 03:23:33;;;;;;;2.53;1.80;;;;;;;-2.27;78.90;102259.25;5073946;28;20444;-66
2024/01/21 03:26:00;;;;;;;1.50;0.30;;;;;;;-2.22;79.11;102250.75;5073604;28;20572;-66
2024/01/21 03:28:26;;;;;;;1.50;0.40;;;;;;;-2.21;79.90;102260.38;5073970;28;20452;-66
2024/01/21 03:30:53;;;;;;;1.50;0.40;;;;;;;-2.17;79.94;102251.06;5073755;28;20528;-66
2024/01/21 03:33:22;;;;;;;1.60;0.43;;;;;;;-2.18;80.27;102249.41;5073389;28;20497;-66
2024/01/21 03:35:49;;;;;;;1.50;0.30;;;;;;;-2.11;80.48;102247.72;5073228;28;20440;-66
2024/01/21 03:38:15;;;;;;;1.60;0.50;;;;;;;-2.11;79.79;102245.91;5074291;28;20532;-66
2024/01/21 03:40:42;;;;;;;1.73;0.70;;;;;;;-2.11;78.92;102250.38;5073149;28;20471;-66
2024/01/21 03:43:09;;;;;;;1.50;0.37;;;;;;;-2.12;78.61;102254.03;5073027;28;20496;-66
2024/01/21 03:45:36;;;;;;;1.93;0.60;;;;;;;-2.18;78.67;102255.53;5073394;28;20485;-66
2024/01/21 03:48:03;;;;;;;1.60;0.40;;;;;;;-2.18;79.42;102255.53;5073325;28;20464;-66
2024/01/21 03:50:31;;;;;;;1.90;0.80;;;;;;;-2.19;79.56;102253.91;5073541;28;20499;-66
2024/01/21 03:52:59;;;;;;;1.50;0.30;;;;;;;-2.16;78.92;102247.44;5073403;28;20462;-66
2024/01/21 03:55:27;;;;;;;1.50;0.30;;;;;;;-2.18;79.40;102246.75;5073033;28;20771;-66
2024/01/21 03:57:54;;;;;;;1.77;0.50;;;;;;;-2.17;77.98;102249.25;5073610;28;20516;-66
2024/01/21 04:00:20;;;;;;;1.50;0.30;;;;;;;-2.22;77.07;102238.31;5073028;28;20444;-66
2024/01/21 04:02:47;;;;;;;1.50;0.30;;;;;;;-2.23;77.32;102235.84;5073250;28;20503;-66
2024/01/21 04:05:13;;;;;;;3.70;2.20;;;;;;;-2.24;77.15;102231.56;5073513;28;20489;-66
2024/01/21 04:07:41;;;;;;;1.53;0.40;;;;;;;-2.19;77.16;102229.19;5073648;28;20507;-66
2024/01/21 04:10:10;;;;;;;1.53;0.30;;;;;;;-2.20;76.20;102232.84;5073132;28;20532;-66
2024/01/21 04:12:37;;;;;;;5.10;1.90;;;;;;;-2.20;76.04;102224.91;5073099;28;20480;-66
2024/01/21 04:15:04;;;;;;;1.90;0.77;;;;;;;-2.17;76.42;102220.06;5073010;28;20444;-66
2024/01/21 04:17:31;;;;;;;1.70;0.50;;;;;;;-2.08;75.34;102208.38;5072687;28;20525;-67
2024/01/21 04:19:57;;;;;;;5.07;1.97;;;;;;;-2.10;75.00;102220.16;5073348;28;20524;-67
2024/01/21 04:22:24;;;;;;;1.60;0.50;;;;;;;-2.08;74.61;102219.00;5072552;28;20544;-67
2024/01/21 04:24:52;;;;;;;1.50;0.40;;;;;;;-2.06;74.55;102222.28;5072948;28;20524;-66
2024/01/21 04:27:18;;;;;;;1.50;0.40;;;;;;;-2.04;74.09;102209.69;5072928;28;20441;-66
2024/01/21 04:29:45;;;;;;;1.60;0.57;;;;;;;-2.01;73.83;102218.28;5072971;28;20971;-66
2024/01/21 04:32:11;;;;;;;1.50;0.30;;;;;;;-1.96;72.72;102224.72;5073004;28;20453;-67
2024/01/21 04:34:38;;;;;;;1.50;0.30;;;;;;;-1.95;73.02;102212.25;5073525;28;20523;-66
2024/01/21 04:37:05;;;;;;;1.90;1.27;;;;;;;-1.90;71.93;102215.22;5073324;28;20438;-67
2024/01/21 04:39:31;;;;;;;1.57;0.40;;;;;;;-1.95;72.88;102210.44;5073103;28;20862;-67
2024/01/21 04:41:59;;;;;;;1.80;1.00;;;;;;;-1.95;71.62;102218.38;5072653;28;20472;-67
2024/01/21 04:44:26;;;;;;;1.50;0.30;;;;;;;-1.94;72.68;102220.06;5074255;28;20791;-67
2024/01/21 04:46:52;;;;;;;1.53;0.50;;;;;;;-1.93;72.25;102215.56;5076422;28;20485;-67
2024/01/21 04:49:19;;;;;;;2.37;1.43;;;;;;;-1.92;72.05;102207.44;5076396;28;20528;-67
2024/01/21 04:51:46;;;;;;;2.33;1.37;;;;;;;-1.92;71.33;102207.44;5076351;28;20548;-67
2024/01/21 04:54:12;;;;;;;2.13;0.70;;;;;;;-1.94;70.55;102217.41;5076023;28;20480;-67
2024/01/21 04:56:39;;;;;;;1.70;0.70;;;;;;;-1.93;71.05;102205.78;5076514;28;20440;-67
2024/01/21 04:59:09;;;;;;;1.50;0.40;;;;;;;-1.96;71.25;102210.63;5076278;28;20792;-67
2024/01/21 05:01:36;;;;;;;3.23;0.97;;;;;;;-1.98;71.42;102216.13;5076192;28;20542;-67
2024/01/21 05:04:02;;;;;;;1.70;0.50;;;;;;;-2.04;71.82;102208.84;5076099;28;20490;-67
2024/01/21 05:06:29;;;;;;;3.40;1.23;;;;;;;-2.05;72.85;102207.19;5075624;28;20489;-67
2024/01/21 05:08:56;;;;;;;6.30;1.60;;;;;;;-1.99;73.18;102208.31;5076772;28;20527;-67
2024/01/21 05:11:22;;;;;;;1.83;0.80;;;;;;;-1.95;73.60;102197.16;5075689;28;20449;-67
2024/01/21 05:13:49;;;;;;;1.60;0.50;;;;;;;-1.89;73.15;102200.94;5075994;28;20524;-67
2024/01/21 05:16:17;;;;;;;2.77;1.70;;;;;;;-1.90;72.86;102209.91;5075633;28;20556;-67
2024/01/21 05:18:44;;;;;;;2.30;1.00;;;;;;;-1.87;73.12;102206.88;5075568;28;20933;-67
2024/01/21 05:21:11;;;;;;;1.60;0.47;;;;;;;-1.86;72.58;102200.56;5075951;28;20789;-67
2024/01/21 05:23:38;;;;;;;1.60;0.50;;;;;;;-1.83;71.38;102205.53;5075880;28;20448;-67
2024/01/21 05:26:04;;;;;;;3.30;1.00;;;;;;;-1.89;71.41;102201.75;5076012;28;20984;-67
2024/01/21 05:28:31;;;;;;;1.50;0.40;;;;;;;-1.87;71.55;102206.88;5075676;28;20484;-67
2024/01/21 05:30:57;;;;;;;1.60;0.60;;;;;;;-1.88;71.10;102210.56;5076206;28;20473;-67
2024/01/21 05:33:25;;;;;;;1.70;0.70;;;;;;;-1.87;70.85;102214.84;5076031;28;20544;-67
2024/01/21 05:35:52;;;;;;;1.60;0.57;;;;;;;-1.85;70.60;102200.41;5076596;28;20441;-67
2024/01/21 05:38:19;;;;;;;1.50;0.40;;;;;;;-1.85;71.61;102195.09;5076023;28;20524;-67
2024/01/21 05:40:45;;;;;;;1.60;0.53;;;;;;;-1.82;71.18;102197.38;5075895;28;20448;-67
2024/01/21 05:43:12;;;;;;;1.50;0.30;;;;;;;-1.78;69.90;102196.00;5076189;22;20486;-66
2024/01/21 05:45:40;;;;;;;2.27;1.17;;;;;;;-1.82;70.48;102189.41;5055593;28;20478;-66
2024/01/21 05:48:07;;;;;;;1.50;0.33;;;;;;;-1.78;70.04;102185.38;5055278;28;20442;-66
2024/01/21 05:50:35;;;;;;;1.50;0.30;;;;;;;-1.74;70.06;102183.22;5055226;28;20438;-66
2024/01/21 05:53:05;;;;;;;2.17;1.40;;;;;;;-1.73;69.03;102182.19;5055138;28;20462;-66
2024/01/21 05:55:31;;;;;;;1.50;0.30;;;;;;;-1.71;69.12;102176.72;5054225;28;20431;-66
2024/01/21 05:57:58;;;;;;;1.60;0.40;;;;;;;-1.70;68.93;102170.41;5054789;28;20964;-67
2024/01/21 06:00:24;;;;;;;1.70;0.80;;;;;;;-1.68;70.11;102173.69;5055482;28;20523;-66
2024/01/21 06:02:51;;;;;;;1.60;0.63;;;;;;;-1.65;68.80;102168.84;5055631;28;20494;-67
2024/01/21 06:05:18;;;;;;;1.57;0.40;;;;;;;-1.66;69.06;102164.53;5054926;28;20446;-66
2024/01/21 06:07:46;;;;;;;1.53;0.40;;;;;;;-1.62;69.95;102170.31;5055000;28;20434;-68
2024/01/21 06:10:12;;;;;;;3.63;0.63;;;;;;;-1.59;69.92;102167.31;5055264;28;20521;-66
2024/01/21 06:12:39;;;;;;;1.50;0.30;;;;;;;-1.65;69.78;102174.16;5055094;28;20549;-68
2024/01/21 06:15:07;;;;;;;2.40;1.13;;;;;;;-1.62;69.14;102162.34;5055153;28;20444;-68
2024/01/21 06:17:33;;;;;;;1.60;0.40;;;;;;;-1.63;70.58;102160.72;5054887;28;20466;-68
2024/01/21 06:20:00;;;;;;;2.80;1.37;;;;;;;-1.59;69.60;102154.84;5054389;28;20442;-68
2024/01/21 06:22:28;;;;;;;1.50;0.40;;;;;;;-1.59;68.34;102154.03;5054633;28;20537;-70
2024/01/21 06:24:57;;;;;;;2.53;1.37;;;;;;;-1.62;68.00;102157.03;5054697;28;20481;-69
2024/01/21 06:27:24;;;;;;;1.80;0.70;;;;;;;-1.64;68.41;102161.69;5054508;28;20486;-69
2024/01/21 06:29:50;;;;;;;1.80;0.70;;;;;;;-1.63;68.46;102148.25;5054877;28;20858;-69
2024/01/21 06:32:17;;;;;;;1.50;0.30;;;;;;;-1.67;68.22;102162.91;5055301;28;20470;-69
2024/01/21 06:34:44;;;;;;;1.53;0.40;;;;;;;-1.62;67.93;102157.88;5054597;28;20481;-69
2024/01/21 06:37:10;;;;;;;1.57;0.40;;;;;;;-1.63;68.54;102155.41;5054504;28;20534;-69
2024/01/21 06:39:37;;;;;;;1.53;0.30;;;;;;;-1.59;68.27;102159.34;5054360;28;20525;-69
2024/01/21 06:42:06;;;;;;;1.53;0.40;;;;;;;-1.54;67.22;102162.28;5054276;28;20471;-68
2024/01/21 06:44:32;;;;;;;1.73;0.60;;;;;;;-1.63;67.17;102166.03;5053993;28;20912;-68
2024/01/21 06:46:59;;;;;;;1.50;0.40;;;;;;;-1.65;68.47;102155.56;5054488;28;20568;-68
2024/01/21 06:49:25;;;;;;;1.70;0.60;;;;;;;-1.56;68.53;102156.31;5054559;28;20466;-68
2024/01/21 06:51:54;;;;;;;1.50;0.30;;;;;;;-1.55;68.67;102155.28;5054381;28;20559;-68
2024/01/21 06:54:21;;;;;;;1.60;0.40;;;;;;;-1.53;67.48;102150.63;5053752;28;20449;-68
2024/01/21 06:56:47;;;;;;;1.50;0.40;;;;;;;-1.49;67.41;102154.59;5054165;28;20525;-69
2024/01/21 06:59:16;;;;;;;1.50;0.40;;;;;;;-1.44;66.68;102154.03;5053712;28;20521;-68
2024/01/21 07:01:42;;;;;;;2.17;1.40;;;;;;;-1.41;67.32;102143.88;5054252;28;20536;-68
2024/01/21 07:04:09;;;;;;;1.97;0.67;;;;;;;-1.42;68.11;102139.53;5053931;28;20481;-68
2024/01/21 07:06:35;;;;;;;1.60;0.50;;;;;;;-1.42;67.00;102134.22;5053606;28;20895;-68
2024/01/21 07:09:03;;;;;;;1.50;0.30;;;;;;;-1.39;67.81;102131.22;5054603;28;20488;-68
2024/01/21 07:11:35;;;;;;;1.60;0.50;;;;;;;-1.37;68.11;102131.88;5053746;28;20462;-68
2024/01/21 07:14:02;;;;;;;1.97;1.37;;;;;;;-1.33;67.81;102132.31;5053849;28;20421;-68
2024/01/21 07:16:30;;;;;;;1.90;0.80;;;;;;;-1.33;68.15;102127.84;5053483;28;20998;-68
2024/01/21 07:18:56;;;;;;;1.70;0.60;;;;;;;-1.25;67.91;102121.56;5053697;28;20442;-69
2024/01/21 07:21:23;;;;;;;5.07;2.20;;;;;;;-1.18;68.12;102132.31;5054018;28;20528;-69
2024/01/21 07:23:49;;;;;;;1.60;0.40;;;;;;;-1.16;66.50;102127.63;5053635;28;20439;-69
2024/01/21 07:26:16;;;;;;;2.20;1.43;;;;;;;-1.18;66.59;102143.78;5053203;28;20488;-70
2024/01/21 07:28:42;;;;;;;1.70;0.70;;;;;;;-1.20;67.50;102137.78;5053574;28;20533;-70
2024/01/21 07:31:09;;;;;;;2.77;1.63;;;;;;;-1.14;67.74;102152.22;5053448;28;20521;-70
2024/01/21 07:33:37;;;;;;;1.70;0.70;;;;;;;-1.12;67.05;102134.22;5055463;28;20474;-70
2024/01/21 07:36:04;;;;;;;1.60;0.60;;;;;;;-1.07;66.94;102121.19;5053476;28;20530;-71
2024/01/21 07:38:31;;;;;;;1.60;0.40;;;;;;;-1.01;67.25;102104.50;5053424;28;20525;-71
2024/01/21 07:40:57;;;;;;;1.90;0.63;;;;;;;-0.97;67.39;102095.16;5053168;28;20526;-70
2024/01/21 07:43:24;;;;;;;3.33;0.77;;;;;;;-0.96;67.55;102102.13;5053084;28;20470;-70
2024/01/21 07:45:51;;;;;;;1.70;0.50;;;;;;;-0.96;67.69;102102.13;5052929;28;20438;-70
2024/01/21 07:48:18;;;;;;;2.63;2.00;;;;;;;-0.92;67.12;102106.06;5053552;28;20436;-70
2024/01/21 07:50:46;;;;;;;1.70;0.63;;;;;;;-0.89;67.49;102105.66;5053413;28;20438;-70
2024/01/21 07:53:13;;;;;;;2.57;2.00;;;;;;;-0.87;66.82;102100.16;5053321;28;20541;-69
2024/01/21 07:55:40;;;;;;;2.00;0.90;;;;;;;-0.81;66.59;102094.91;5052995;28;21005;-70
2024/01/21 07:58:06;;;;;;;1.80;0.70;;;;;;;-0.73;66.78;102101.13;5053295;28;20466;-70
2024/01/21 08:00:33;;;;;;;3.07;1.47;;;;;;;-0.69;66.29;102111.22;5053271;28;20990;-70
2024/01/21 08:03:00;;;;;;;1.93;0.70;;;;;;;-0.65;65.63;102119.66;5053182;28;20460;-70
2024/01/21 08:05:26;;;;;;;2.47;1.50;;;;;;;-0.59;65.09;102113.56;5053608;28;20512;-70
2024/01/21 08:07:54;;;;;;;1.50;0.30;;;;;;;-0.56;65.55;102116.66;5053140;28;20577;-70
2024/01/21 08:10:21;;;;;;;1.57;0.30;;;;;;;-0.57;65.36;102115.03;5053492;28;20462;-70
2024/01/21 08:12:48;;;;;;;1.80;0.97;;;;;;;-0.42;65.14;102104.31;5052756;28;20548;-70
2024/01/21 08:15:14;;;;;;;1.80;0.70;;;;;;;-0.43;64.68;102097.34;5052848;28;20513;-68
2024/01/21 08:17:41;;;;;;;2.00;0.97;;;;;;;-0.35;62.76;102081.25;5052922;28;20521;-68
2024/01/21 08:20:09;;;;;;;1.90;0.87;;;;;;;-0.27;62.84;102075.78;5055453;28;20524;-68
2024/01/21 08:22:36;;;;;;;1.90;0.80;;;;;;;-0.19;63.04;102060.69;5057008;28;20458;-69
2024/01/21 08:25:05;;;;;;;2.37;0.80;;;;;;;-0.19;63.29;102055.34;5057285;28;20445;-69
2024/01/21 08:27:32;;;;;;;1.67;0.47;;;;;;;-0.13;61.20;102065.25;5057012;28;20486;-69
2024/01/21 08:29:58;;;;;;;2.47;1.03;;;;;;;-0.15;60.38;102068.09;5056834;28;20441;-69
2024/01/21 08:32:25;;;;;;;3.03;1.27;;;;;;;-0.20;61.50;102059.84;5056687;28;20544;-69
2024/01/21 08:34:52;;;;;;;1.60;0.30;;;;;;;-0.17;61.23;102071.97;5056932;28;20465;-69
2024/01/21 08:37:19;;;;;;;1.50;0.30;;;;;;;-0.11;61.52;102071.19;5057079;28;20438;-69
2024/01/21 08:39:48;;;;;;;1.70;0.53;;;;;;;-0.06;61.42;102071.44;5056826;28;20441;-69
2024/01/21 08:42:16;;;;;;;3.87;1.10;;;;;;;-0.01;60.76;102067.16;5056048;28;20473;-70
2024/01/21 08:44:42;;;;;;;2.10;1.10;;;;;;;0.05;61.15;102068.25;5056209;28;20809;-69
2024/01/21 08:47:09;;;;;;;2.20;0.53;;;;;;;0.11;60.17;102067.47;5056426;28;20576;-69
2024/01/21 08:49:35;;;;;;;1.60;0.50;;;;;;;0.14;59.78;102056.44;5056374;28;20940;-69
2024/01/21 08:52:02;;;;;;;1.80;0.87;;;;;;;0.17;59.67;102044.53;5056863;28;20465;-67
2024/01/21 08:54:29;;;;;;;2.83;1.00;;;;;;;0.18;59.31;102046.22;5057787;28;20441;-73
2024/01/21 08:56:55;;;;;;;1.80;0.87;;;;;;;0.29;59.18;102055.47;5056487;28;20527;-68
2024/01/21 08:59:23;;;;;;;1.53;0.30;;;;;;;0.31;58.65;102053.44;5055926;28;20438;-68
2024/01/21 09:01:50;;;;;;;2.27;0.90;;;;;;;0.38;59.06;102049.78;5056195;28;20468;-68
2024/01/21 09:04:17;;;;;;;1.60;0.40;;;;;;;0.42;58.37;102064.38;5056173;28;20525;-69
2024/01/21 09:06:43;;;;;;;1.60;0.40;;;;;;;0.52;57.15;102064.00;5055726;28;20482;-68
2024/01/21 09:09:11;;;;;;;2.00;0.97;;;;;;;0.57;55.71;102058.06;5056117;28;20526;-69
2024/01/21 09:11:38;;;;;;;1.70;0.60;;;;;;;0.63;55.94;102068.78;5056013;28;20466;-69
2024/01/21 09:14:05;;;;;;;1.60;0.50;;;;;;;0.68;54.96;102069.00;5056376;28;20445;-69
2024/01/21 09:16:33;;;;;;;1.80;0.77;;;;;;;0.74;54.27;102073.53;5056015;28;20620;-69
2024/01/21 09:19:00;;;;;;;1.53;0.30;;;;;;;0.66;56.06;102075.53;5055522;28;20473;-70
2024/01/21 09:21:26;;;;;;;1.53;0.30;;;;;;;0.71;55.64;102067.81;5056185;28;20448;-69
2024/01/21 09:23:55;;;;;;;1.70;0.60;;;;;;;0.84;54.21;102061.66;5055902;28;20875;-69
2024/01/21 09:26:21;;;;;;;3.00;1.40;;;;;;;0.86;55.00;102051.63;5055742;28;20434;-69
2024/01/21 09:28:48;;;;;;;1.70;0.57;;;;;;;0.97;54.73;102053.72;5055481;28;20913;-69
2024/01/21 09:31:14;;;;;;;1.57;0.40;;;;;;;1.03;53.34;102049.44;5055896;28;20528;-69
2024/01/21 09:33:42;;;;;;;2.37;0.73;;;;;;;1.07;54.53;102050.69;5055726;28;20468;-69
2024/01/21 09:36:09;;;;;;;1.60;0.40;;;;;;;1.13;53.54;102048.00;5055573;28;20473;-69
2024/01/21 09:38:36;;;;;;;3.37;0.60;;;;;;;1.18;52.22;102047.41;5055964;28;20851;-69
2024/01/21 09:41:09;;;;;;;1.90;0.70;;;;;;;1.25;52.99;102034.91;5055868;28;20525;-69
2024/01/21 09:43:41;;;;;;;1.60;0.43;;;;;;;1.30;53.47;102023.63;5055063;28;20827;-69
2024/01/21 09:46:08;;;;;;;1.77;0.60;;;;;;;1.30;51.28;102028.97;5055105;28;20454;-69
2024/01/21 09:48:36;;;;;;;1.90;0.60;;;;;;;1.33;51.75;102024.03;5055253;28;20484;-69
2024/01/21 09:51:06;;;;;;;2.00;0.90;;;;;;;1.36;51.59;102022.81;5054975;28;20438;-69
2024/01/21 09:53:33;;;;;;;1.87;0.83;;;;;;;1.49;49.32;102018.28;5054974;28;20935;-69
2024/01/21 09:56:06;;;;;;;2.20;0.53;;;;;;;1.56;48.54;102006.81;5054922;28;20460;-69
2024/01/21 09:58:35;;;;;;;2.77;0.60;;;;;;;1.66;48.23;102005.34;5055168;28;20422;-69
2024/01/21 10:01:02;;;;;;;1.60;0.40;;;;;;;1.69;47.03;102012.97;5055461;28;20525;-69
2024/01/21 10:03:28;;;;;;;1.97;0.70;;;;;;;1.72;48.27;101999.16;5055065;28;20550;-69
2024/01/21 10:05:55;;;;;;;1.57;0.30;;;;;;;1.74;48.33;101994.47;5055082;28;20442;-68
2024/01/21 10:08:23;;;;;;;2.07;0.93;;;;;;;1.82;46.93;101995.28;5055270;28;20573;-68
2024/01/21 10:10:49;;;;;;;1.70;0.53;;;;;;;1.85;47.69;101986.81;5054890;28;20526;-68
2024/01/21 10:13:16;;;;;;;2.10;0.67;;;;;;;1.88;47.26;101983.75;5054474;28;20486;-68
2024/01/21 10:15:43;;;;;;;1.60;0.40;;;;;;;1.92;47.35;101991.13;5054866;28;20481;-68
2024/01/21 10:18:09;;;;;;;1.60;0.40;;;;;;;2.00;45.53;101982.91;5054843;28;20441;-69
2024/01/21 10:20:36;;;;;;;1.83;0.60;;;;;;;2.09;46.04;101986.19;5054770;28;20520;-69
2024/01/21 10:23:10;;;;;;;1.60;0.40;;;;;;;2.19;44.51;101965.16;5054402;28;20878;-69
2024/01/21 10:25:40;;;;;;;1.57;0.37;;;;;;;2.20;45.25;101974.81;5054365;28;20759;-68
2024/01/21 10:28:06;;;;;;;2.40;0.93;;;;;;;2.28;44.04;101982.59;5054259;28;21009;-68
2024/01/21 10:30:33;;;;;;;1.60;0.40;;;;;;;2.27;43.62;101983.66;5054732;28;20926;-68
2024/01/21 10:33:00;;;;;;;1.50;0.30;;;;;;;2.25;45.01;101975.00;5054799;28;20520;-68
2024/01/21 10:35:27;;;;;;;1.87;0.87;;;;;;;2.27;44.81;101983.66;5054648;28;20474;-68
2024/01/21 10:37:53;;;;;;;2.63;0.50;;;;;;;2.28;44.82;101976.44;5054183;28;20522;-68
2024/01/21 10:40:19;;;;;;;1.50;0.30;;;;;;;2.31;43.98;101975.22;5054379;28;20446;-68
2024/01/21 10:42:53;;;;;;;1.53;0.30;;;;;;;2.32;43.95;101964.28;5053591;28;20482;-68
2024/01/21 10:45:22;;;;;;;1.60;0.40;;;;;;;2.34;44.33;101964.06;5054379;28;20191;-68
2024/01/21 10:47:50;;;;;;;1.60;0.40;;;;;;;2.41;45.07;101955.00;5054623;28;20486;-68
2024/01/21 10:50:17;;;;;;;2.50;0.57;;;;;;;2.41;45.88;101956.84;5054074;28;21150;-68
2024/01/21 10:52:46;;;;;;;1.60;0.50;;;;;;;2.40;45.80;101949.88;5054117;28;20457;-68
2024/01/21 10:55:12;;;;;;;1.57;0.40;;;;;;;2.34;45.01;101940.00;5053720;28;20434;-68
2024/01/21 10:57:39;;;;;;;2.87;1.10;;;;;;;2.42;44.47;101934.44;5054012;28;20517;-68
2024/01/21 11:00:09;;;;;;;3.70;0.80;;;;;;;2.46;43.95;101922.28;5054410;28;20525;-68
2024/01/21 11:02:36;;;;;;;1.50;0.30;;;;;;;2.40;46.03;101912.44;5054184;28;20536;-68
2024/01/21 11:05:03;;;;;;;1.87;0.47;;;;;;;2.43;45.08;101918.16;5053669;28;20954;-68
2024/01/21 11:07:31;;;;;;;2.43;0.73;;;;;;;2.51;44.25;101931.28;5053578;28;21025;-68
2024/01/21 11:09:58;;;;;;;3.23;0.60;;;;;;;2.59;42.41;101932.09;5053919;28;20480;-68
2024/01/21 11:12:25;;;;;;;1.60;0.40;;;;;;;2.63;42.91;101915.38;5053818;28;20458;-68
2024/01/21 11:14:51;;;;;;;1.70;0.40;;;;;;;2.70;42.72;101918.00;5053806;28;20438;-68
2024/01/21 11:17:21;;;;;;;1.60;0.40;;;;;;;2.67;44.85;101923.81;5053845;28;20441;-68
2024/01/21 11:19:52;;;;;;;2.83;0.87;;;;;;;2.73;44.91;101926.44;5053647;28;20450;-68
2024/01/21 11:22:22;;;;;;;2.17;0.50;;;;;;;2.86;43.49;101932.75;5053335;28;20711;-69
2024/01/21 11:24:51;;;;;;;1.70;0.50;;;;;;;3.05;41.54;101934.44;5053469;28;20442;-67